createdAt,value
2022-11-16T00:00:04.301Z,14.95
2022-11-16T00:02:36.163Z,13.52
2022-11-16T00:05:06.579Z,12.60
2022-11-16T00:07:37.035Z,14.80
2022-11-16T00:10:11.355Z,11.32
2022-11-16T00:12:41.637Z,13.70
2022-11-16T00:15:12.179Z,13.85
2022-11-16T00:17:42.410Z,15.00
2022-11-16T00:20:13.625Z,14.63
2022-11-16T00:22:43.866Z,16.30
2022-11-16T00:25:16.735Z,15.63
2022-11-16T00:27:47.013Z,12.05
2022-11-16T00:30:17.539Z,13.68
2022-11-16T00:32:47.806Z,14.48
2022-11-16T00:35:18.575Z,14.23
2022-11-16T00:37:48.821Z,15.07
2022-11-16T00:40:21.711Z,18.05
2022-11-16T00:42:52.936Z,15.57
2022-11-16T00:45:23.212Z,16.25
2022-11-16T00:47:59.183Z,19.02
2022-11-16T00:50:30.795Z,15.65
2022-11-16T00:53:01.520Z,19.55
2022-11-16T00:55:35.869Z,16.67
2022-11-16T00:58:06.926Z,18.92
2022-11-16T01:00:37.305Z,15.45
2022-11-16T01:03:07.795Z,16.85
2022-11-16T01:05:38.200Z,18.23
2022-11-16T01:08:09.019Z,17.05
2022-11-16T01:10:44.409Z,16.75
2022-11-16T01:13:12.322Z,18.35
2022-11-16T01:15:42.648Z,17.17
2022-11-16T01:18:13.018Z,20.02
2022-11-16T01:20:43.738Z,18.05
2022-11-16T01:23:14.037Z,20.90
2022-11-16T01:25:46.617Z,18.30
2022-11-16T01:28:16.961Z,19.10
2022-11-16T01:30:52.626Z,18.35
2022-11-16T01:33:23.210Z,16.05
2022-11-16T01:35:53.961Z,18.15
2022-11-16T01:38:29.502Z,20.33
2022-11-16T01:41:04.445Z,16.33
2022-11-16T01:43:34.916Z,17.08
2022-11-16T01:46:06.337Z,17.30
2022-11-16T01:48:37.082Z,17.40
2022-11-16T01:51:07.978Z,17.77
2022-11-16T01:53:38.358Z,15.95
2022-11-16T01:56:11.613Z,16.17
2022-11-16T01:59:07.632Z,18.02
2022-11-16T02:01:38.073Z,13.40
2022-11-16T02:04:08.871Z,15.88
2022-11-16T02:06:55.421Z,15.63
2022-11-16T02:09:55.992Z,15.00
2022-11-16T02:13:00.392Z,15.35
2022-11-16T02:15:46.032Z,16.13
2022-11-16T02:18:37.385Z,15.05
2022-11-16T02:21:18.228Z,15.98
2022-11-16T02:24:17.603Z,15.30
2022-11-16T02:27:14.401Z,17.33
2022-11-16T02:29:50.527Z,14.63
2022-11-16T02:32:26.588Z,15.80
2022-11-16T02:35:03.833Z,14.77
2022-11-16T02:37:37.187Z,16.30
2022-11-16T02:40:14.051Z,15.10
2022-11-16T02:42:47.663Z,13.88
2022-11-16T02:45:24.179Z,13.55
2022-11-16T02:47:59.446Z,14.95
2022-11-16T02:50:30.418Z,14.15
2022-11-16T02:53:00.828Z,13.65
2022-11-16T02:55:37.152Z,16.27
2022-11-16T02:58:09.829Z,15.35
2022-11-16T03:00:50.095Z,12.68
2022-11-16T03:03:29.610Z,14.65
2022-11-16T03:06:06.550Z,13.43
2022-11-16T03:08:41.120Z,13.65
2022-11-16T03:11:27.161Z,12.65
2022-11-16T03:14:03.039Z,14.88
2022-11-16T03:16:39.116Z,15.25
2022-11-16T03:19:12.909Z,14.68
2022-11-16T03:21:46.782Z,14.82
2022-11-16T03:24:17.218Z,14.32
2022-11-16T03:26:55.638Z,13.90
2022-11-16T03:29:30.870Z,12.93
2022-11-16T03:32:14.610Z,14.40
2022-11-16T03:34:49.413Z,14.50
2022-11-16T03:37:20.180Z,15.27
2022-11-16T03:39:51.618Z,14.48
2022-11-16T03:42:25.001Z,16.95
2022-11-16T03:44:55.665Z,15.27
2022-11-16T03:47:28.260Z,16.10
2022-11-16T03:49:58.567Z,14.02
2022-11-16T03:52:29.162Z,13.75
2022-11-16T03:54:59.514Z,12.93
2022-11-16T03:57:30.147Z,17.50
2022-11-16T04:00:02.777Z,14.55
2022-11-16T04:02:45.980Z,15.30
2022-11-16T04:05:37.405Z,16.88
2022-11-16T04:08:29.383Z,16.27
2022-11-16T04:11:12.169Z,20.15
2022-11-16T04:13:54.964Z,15.20
2022-11-16T04:16:38.197Z,17.70
2022-11-16T04:19:26.595Z,14.98
2022-11-16T04:22:12.609Z,15.88
2022-11-16T04:24:44.650Z,14.45
2022-11-16T04:27:29.986Z,14.35
2022-11-16T04:30:02.302Z,16.00
2022-11-16T04:32:46.830Z,15.45
2022-11-16T04:35:32.142Z,19.27
2022-11-16T04:38:02.552Z,13.82
2022-11-16T04:40:36.464Z,14.90
2022-11-16T04:43:05.794Z,17.35
2022-11-16T04:45:51.530Z,17.63
2022-11-16T04:48:24.362Z,18.65
2022-11-16T04:50:59.500Z,19.23
2022-11-16T04:53:30.494Z,21.20
2022-11-16T04:56:24.284Z,17.45
2022-11-16T04:58:54.972Z,19.35
2022-11-16T05:01:45.812Z,18.23
2022-11-16T05:04:16.605Z,17.70
2022-11-16T05:06:49.770Z,22.02
2022-11-16T05:09:20.128Z,19.23
2022-11-16T05:11:50.792Z,16.25
2022-11-16T05:14:21.589Z,20.45
2022-11-16T05:16:52.357Z,20.30
2022-11-16T05:19:35.194Z,20.42
2022-11-16T05:22:08.227Z,20.98
2022-11-16T05:24:36.065Z,19.90
2022-11-16T05:27:10.319Z,18.98
2022-11-16T05:29:45.157Z,22.92
2022-11-16T05:34:49.594Z,24.13
2022-11-16T05:37:26.655Z,23.30
2022-11-16T05:39:57.376Z,20.58
2022-11-16T05:42:36.889Z,27.15
2022-11-16T05:45:08.737Z,20.65
2022-11-16T05:47:39.039Z,18.55
2022-11-16T05:50:10.661Z,24.63
2022-11-16T05:52:46.455Z,23.98
2022-11-16T05:55:16.833Z,20.15
2022-11-16T05:57:47.905Z,22.63
2022-11-16T06:00:19.713Z,19.90
2022-11-16T06:02:54.112Z,22.30
2022-11-16T06:05:29.571Z,27.80
2022-11-16T06:08:03.930Z,23.83
2022-11-16T06:10:34.239Z,21.95
2022-11-16T06:13:04.563Z,24.95
2022-11-16T06:15:35.566Z,22.92
2022-11-16T06:18:09.752Z,26.38
2022-11-16T06:20:43.667Z,25.65
2022-11-16T06:23:16.473Z,25.20
2022-11-16T06:25:46.754Z,23.65
2022-11-16T06:28:17.378Z,23.88
2022-11-16T06:30:47.972Z,25.73
2022-11-16T06:33:18.381Z,23.35
2022-11-16T06:35:48.999Z,24.25
2022-11-16T06:38:25.314Z,23.60
2022-11-16T06:40:59.402Z,20.33
2022-11-16T06:43:31.841Z,22.08
2022-11-16T06:46:03.677Z,22.45
2022-11-16T06:48:36.404Z,23.30
2022-11-16T06:51:11.266Z,21.63
2022-11-16T06:53:44.068Z,24.55
2022-11-16T06:56:17.456Z,26.50
2022-11-16T06:58:53.867Z,20.40
2022-11-16T07:01:26.325Z,19.90
2022-11-16T07:04:02.128Z,21.67
2022-11-16T07:06:32.538Z,21.58
2022-11-16T07:09:08.738Z,25.08
2022-11-16T07:11:39.601Z,25.98
2022-11-16T07:14:10.052Z,23.60
2022-11-16T07:16:41.192Z,21.52
2022-11-16T07:19:11.532Z,23.80
2022-11-16T07:21:43.134Z,21.15
2022-11-16T07:24:20.554Z,23.95
2022-11-16T07:26:51.165Z,20.98
2022-11-16T07:29:24.675Z,21.95
2022-11-16T07:32:24.369Z,22.40
2022-11-16T07:35:00.731Z,22.20
2022-11-16T07:37:31.876Z,18.67
2022-11-16T07:40:04.504Z,19.35
2022-11-16T07:42:35.058Z,24.52
2022-11-16T07:45:24.116Z,20.80
2022-11-16T07:47:59.842Z,19.95
2022-11-16T07:51:04.783Z,21.60
2022-11-16T07:56:11.013Z,18.50
2022-11-16T07:58:43.778Z,19.67
2022-11-16T08:01:15.966Z,21.52
2022-11-16T08:03:48.940Z,20.15
2022-11-16T08:06:22.014Z,21.85
2022-11-16T08:08:58.247Z,21.52
2022-11-16T08:11:31.802Z,24.27
2022-11-16T08:14:02.315Z,25.33
2022-11-16T08:16:33.577Z,24.25
2022-11-16T08:19:11.814Z,21.00
2022-11-16T08:21:42.468Z,21.75
2022-11-16T08:24:12.894Z,26.55
2022-11-16T08:26:47.928Z,29.45
2022-11-16T08:29:18.676Z,25.23
2022-11-16T08:31:53.039Z,21.48
2022-11-16T08:34:25.401Z,22.50
2022-11-16T08:37:00.989Z,21.90
2022-11-16T08:39:46.762Z,21.58
2022-11-16T08:42:19.480Z,24.48
2022-11-16T08:44:52.137Z,17.58
2022-11-16T08:47:24.154Z,19.17
2022-11-16T08:49:57.044Z,22.80
2022-11-16T08:52:29.685Z,21.98
2022-11-16T08:55:00.504Z,21.20
2022-11-16T08:57:33.688Z,23.27
2022-11-16T09:00:09.376Z,21.27
2022-11-16T09:02:39.410Z,21.80
2022-11-16T09:05:12.149Z,21.63
2022-11-16T09:07:45.791Z,20.45
2022-11-16T09:10:16.019Z,21.40
2022-11-16T09:12:48.897Z,19.52
2022-11-16T09:15:19.471Z,21.38
2022-11-16T09:17:54.891Z,20.95
2022-11-16T09:20:26.458Z,20.00
2022-11-16T09:22:56.499Z,20.70
2022-11-16T09:25:26.786Z,23.33
2022-11-16T09:28:00.343Z,17.65
2022-11-16T09:30:30.550Z,18.45
2022-11-16T09:33:01.406Z,19.58
2022-11-16T09:35:31.735Z,18.67
2022-11-16T09:38:01.735Z,16.92
2022-11-16T09:40:36.552Z,15.95
2022-11-16T09:43:15.760Z,19.38
2022-11-16T09:45:54.208Z,19.58
2022-11-16T09:48:25.663Z,15.00
2022-11-16T09:50:59.242Z,18.55
2022-11-16T09:53:35.580Z,18.05
2022-11-16T09:56:09.274Z,17.58
2022-11-16T09:58:44.164Z,16.35
2022-11-16T10:01:25.462Z,17.73
2022-11-16T10:03:59.445Z,14.70
2022-11-16T10:06:32.957Z,17.40
2022-11-16T10:09:03.454Z,17.00
2022-11-16T10:11:51.690Z,13.82
2022-11-16T10:14:50.058Z,11.82
2022-11-16T10:17:34.330Z,13.40
2022-11-16T10:20:19.745Z,15.23
2022-11-16T10:23:02.248Z,14.52
2022-11-16T10:25:42.560Z,14.32
2022-11-16T10:28:45.245Z,16.48
2022-11-16T10:31:24.964Z,14.57
2022-11-16T10:33:58.569Z,14.25
2022-11-16T10:36:29.944Z,16.55
2022-11-16T10:39:03.210Z,14.35
2022-11-16T10:41:38.209Z,13.45
2022-11-16T10:44:20.622Z,17.60
2022-11-16T10:47:02.009Z,13.77
2022-11-16T10:49:40.051Z,11.70
2022-11-16T10:52:10.213Z,13.00
2022-11-16T10:54:44.274Z,15.95
2022-11-16T10:59:59.226Z,15.25
2022-11-16T11:02:37.808Z,16.70
2022-11-16T11:05:17.001Z,13.52
2022-11-16T11:07:56.899Z,12.95
2022-11-16T11:10:34.474Z,16.60
2022-11-16T11:13:03.488Z,17.08
2022-11-16T11:15:33.646Z,18.25
2022-11-16T11:18:22.083Z,16.08
2022-11-16T11:20:54.847Z,18.30
2022-11-16T11:23:26.909Z,19.63
2022-11-16T11:25:58.673Z,23.58
2022-11-16T11:28:31.799Z,19.92
2022-11-16T11:31:04.596Z,20.70
2022-11-16T11:33:39.200Z,19.25
2022-11-16T11:36:18.626Z,16.92
2022-11-16T11:39:05.267Z,14.88
2022-11-16T11:41:37.760Z,18.55
2022-11-16T11:44:16.821Z,18.48
2022-11-16T11:47:42.294Z,16.80
2022-11-16T11:49:49.977Z,14.77
2022-11-16T11:52:25.775Z,16.67
2022-11-16T11:54:58.305Z,17.88
2022-11-16T11:57:28.497Z,18.08
2022-11-16T11:59:58.551Z,17.05
2022-11-16T12:02:46.430Z,19.73
2022-11-16T12:05:59.529Z,20.52
2022-11-16T12:08:47.063Z,15.40
2022-11-16T12:11:27.704Z,19.38
2022-11-16T12:14:10.629Z,17.95
2022-11-16T12:16:49.105Z,16.83
2022-11-16T12:19:40.967Z,20.75
2022-11-16T12:22:25.111Z,19.83
2022-11-16T12:25:06.893Z,17.73
2022-11-16T12:27:45.098Z,21.70
2022-11-16T12:30:19.357Z,19.98
2022-11-16T12:33:00.289Z,17.20
2022-11-16T12:35:47.326Z,18.33
2022-11-16T12:38:41.055Z,19.70
2022-11-16T12:41:34.229Z,18.95
2022-11-16T12:44:06.831Z,19.33
2022-11-16T12:46:49.818Z,19.55
2022-11-16T12:49:52.438Z,18.63
2022-11-16T12:52:43.439Z,17.85
2022-11-16T12:55:28.746Z,17.67
2022-11-16T12:58:10.419Z,18.42
2022-11-16T13:00:55.081Z,17.15
2022-11-16T13:06:04.719Z,15.48
2022-11-16T13:08:46.950Z,15.15
2022-11-16T13:11:23.654Z,17.17
2022-11-16T13:13:55.945Z,15.93
2022-11-16T13:16:27.421Z,18.02
2022-11-16T13:18:58.606Z,18.98
2022-11-16T13:21:42.754Z,17.25
2022-11-16T13:24:34.528Z,21.75
2022-11-16T13:27:30.229Z,22.65
2022-11-16T13:30:06.321Z,19.17
2022-11-16T13:32:47.981Z,16.75
2022-11-16T13:35:20.964Z,16.42
2022-11-16T13:37:52.059Z,17.85
2022-11-16T13:40:30.800Z,20.80
2022-11-16T13:43:09.764Z,19.52
2022-11-16T13:45:43.390Z,21.83
2022-11-16T13:48:21.929Z,20.45
2022-11-16T13:50:55.042Z,21.15
2022-11-16T13:56:20.206Z,18.65
2022-11-16T13:58:58.347Z,19.50
2022-11-16T14:01:29.294Z,22.73
2022-11-16T14:04:37.209Z,18.42
2022-11-16T14:07:07.610Z,19.75
2022-11-16T14:09:51.528Z,19.95
2022-11-16T14:12:57.632Z,21.77
2022-11-16T14:15:36.355Z,21.42
2022-11-16T14:18:35.175Z,18.00
2022-11-16T14:21:19.111Z,17.27
2022-11-16T14:24:10.941Z,19.45
2022-11-16T14:26:51.195Z,19.90
2022-11-16T14:29:41.240Z,21.33
2022-11-16T14:32:23.651Z,20.35
2022-11-16T14:34:56.270Z,17.77
2022-11-16T14:37:36.332Z,16.75
2022-11-16T14:40:12.489Z,18.85
2022-11-16T14:43:14.953Z,18.92
2022-11-16T14:45:42.163Z,18.88
2022-11-16T14:48:21.141Z,16.58
2022-11-16T14:51:09.072Z,20.48
2022-11-16T14:53:44.524Z,19.42
2022-11-16T14:56:20.132Z,18.42
2022-11-16T14:58:59.253Z,18.15
2022-11-16T15:01:33.106Z,23.10
2022-11-16T15:04:10.089Z,21.92
2022-11-16T15:06:44.878Z,22.45
2022-11-16T15:09:22.573Z,22.95
2022-11-16T15:12:06.244Z,27.35
2022-11-16T15:14:41.049Z,57.03
2022-11-16T15:17:11.648Z,21.58
2022-11-16T15:19:44.253Z,36.95
2022-11-16T15:22:20.557Z,103.28
2022-11-16T15:24:58.185Z,143.18
2022-11-16T15:27:37.405Z,107.40
2022-11-16T15:30:17.444Z,39.95
2022-11-16T15:32:48.982Z,20.95
2022-11-16T15:35:24.374Z,20.77
2022-11-16T15:38:04.382Z,16.88
2022-11-16T15:40:36.145Z,46.08
2022-11-16T15:43:08.581Z,33.40
2022-11-16T15:45:40.999Z,38.03
2022-11-16T15:48:18.639Z,29.25
2022-11-16T15:51:09.129Z,37.60
2022-11-16T15:53:42.436Z,61.08
2022-11-16T15:56:16.288Z,56.75
2022-11-16T15:58:46.724Z,92.32
2022-11-16T16:01:18.195Z,101.57
2022-11-16T16:03:56.851Z,56.75
2022-11-16T16:06:48.980Z,72.68
2022-11-16T16:09:26.826Z,85.80
2022-11-16T16:11:58.650Z,23.73
2022-11-16T16:14:31.175Z,60.35
2022-11-16T16:17:02.104Z,65.70
2022-11-16T16:19:41.486Z,57.28
2022-11-16T16:22:28.309Z,72.22
2022-11-16T16:24:59.014Z,88.50
2022-11-16T16:27:30.859Z,58.72
2022-11-16T16:30:05.376Z,75.95
2022-11-16T16:32:38.379Z,76.10
2022-11-16T16:35:11.249Z,66.22
2022-11-16T16:37:43.856Z,87.95
2022-11-16T16:40:14.368Z,41.63
2022-11-16T16:42:44.807Z,96.88
2022-11-16T16:45:19.634Z,105.70
2022-11-16T16:47:50.340Z,43.45
2022-11-16T16:50:20.621Z,61.42
2022-11-16T16:52:53.196Z,67.07
2022-11-16T16:55:23.476Z,53.05
2022-11-16T16:57:54.111Z,108.95
2022-11-16T17:00:24.509Z,105.18
2022-11-16T17:02:54.831Z,191.63
2022-11-16T17:05:26.318Z,100.95
2022-11-16T17:08:00.242Z,102.95
2022-11-16T17:10:30.531Z,85.45
2022-11-16T17:13:03.158Z,114.95
2022-11-16T17:15:33.540Z,39.40
2022-11-16T17:18:03.781Z,34.72
2022-11-16T17:20:34.188Z,33.65
2022-11-16T17:23:06.996Z,24.05
2022-11-16T17:25:37.311Z,27.33
2022-11-16T17:28:08.091Z,23.27
2022-11-16T17:30:38.349Z,27.90
2022-11-16T17:33:09.007Z,37.20
2022-11-16T17:35:39.313Z,53.95
2022-11-16T17:38:13.184Z,27.83
2022-11-16T17:40:43.582Z,31.50
2022-11-16T17:43:13.765Z,62.55
2022-11-16T17:45:44.061Z,37.85
2022-11-16T17:48:14.376Z,45.47
2022-11-16T17:50:50.190Z,41.28
2022-11-16T17:53:23.888Z,37.75
2022-11-16T17:55:55.738Z,56.40
2022-11-16T17:58:26.077Z,40.10
2022-11-16T18:00:56.732Z,51.67
2022-11-16T18:03:28.381Z,50.88
2022-11-16T18:06:05.694Z,83.85
2022-11-16T18:08:39.816Z,61.85
2022-11-16T18:11:10.162Z,39.20
2022-11-16T18:13:40.696Z,61.88
2022-11-16T18:16:14.118Z,64.00
2022-11-16T18:18:44.865Z,40.17
2022-11-16T18:21:20.381Z,40.85
2022-11-16T18:23:53.677Z,24.02
2022-11-16T18:26:25.880Z,39.00
2022-11-16T18:28:56.497Z,38.85
2022-11-16T18:31:27.622Z,73.70
2022-11-16T18:33:57.937Z,58.55
2022-11-16T18:36:28.261Z,39.53
2022-11-16T18:39:00.950Z,46.10
2022-11-16T18:41:32.691Z,54.83
2022-11-16T18:44:06.282Z,52.78
2022-11-16T18:46:36.799Z,39.95
2022-11-16T18:49:07.166Z,56.72
2022-11-16T18:51:37.430Z,27.55
2022-11-16T18:54:10.446Z,52.22
2022-11-16T18:56:40.803Z,36.10
2022-11-16T18:59:11.070Z,24.17
2022-11-16T19:01:41.611Z,22.13
2022-11-16T19:04:11.935Z,29.92
2022-11-16T19:06:42.249Z,24.10
2022-11-16T19:09:14.872Z,26.20
2022-11-16T19:11:45.258Z,27.45
2022-11-16T19:14:15.622Z,26.52
2022-11-16T19:16:54.179Z,20.75
2022-11-16T19:19:27.873Z,29.00
2022-11-16T19:21:58.827Z,27.40
2022-11-16T19:24:32.290Z,28.20
2022-11-16T19:27:06.131Z,29.73
2022-11-16T19:29:36.929Z,22.77
2022-11-16T19:32:09.075Z,24.42
2022-11-16T19:34:39.497Z,28.30
2022-11-16T19:37:10.889Z,31.17
2022-11-16T19:39:44.342Z,25.17
2022-11-16T19:42:14.778Z,21.23
2022-11-16T19:44:45.049Z,21.13
2022-11-16T19:47:15.435Z,23.42
2022-11-16T19:49:46.278Z,22.70
2022-11-16T19:52:16.628Z,25.02
2022-11-16T19:54:49.707Z,32.00
2022-11-16T19:57:20.801Z,42.22
2022-11-16T19:59:51.408Z,32.17
2022-11-16T20:02:21.855Z,24.45
2022-11-16T20:04:52.594Z,28.20
2022-11-16T20:07:23.590Z,24.00
2022-11-16T20:09:58.444Z,25.02
2022-11-16T20:12:29.385Z,22.30
2022-11-16T20:15:01.541Z,21.15
2022-11-16T20:17:31.823Z,24.98
2022-11-16T20:20:02.107Z,23.42
2022-11-16T20:22:32.366Z,21.50
2022-11-16T20:25:05.098Z,23.40
2022-11-16T20:27:35.742Z,23.67
2022-11-16T20:30:09.534Z,21.20
2022-11-16T20:32:40.102Z,21.98
2022-11-16T20:35:13.699Z,21.92
2022-11-16T20:37:48.095Z,24.05
2022-11-16T20:40:20.962Z,26.85
2022-11-16T20:42:51.221Z,26.05
2022-11-16T20:45:21.532Z,24.40
2022-11-16T20:47:51.792Z,25.65
2022-11-16T20:50:22.229Z,22.65
2022-11-16T20:52:53.003Z,20.45
2022-11-16T20:55:25.647Z,23.13
2022-11-16T20:57:55.902Z,21.10
2022-11-16T21:00:26.166Z,19.58
2022-11-16T21:02:56.598Z,18.55
2022-11-16T21:05:26.964Z,16.67
2022-11-16T21:07:57.246Z,17.58
2022-11-16T21:10:31.114Z,18.20
2022-11-16T21:13:13.847Z,14.13
2022-11-16T21:15:44.117Z,19.48
2022-11-16T21:18:14.372Z,17.25
2022-11-16T21:20:44.628Z,17.65
2022-11-16T21:23:14.922Z,29.83
2022-11-16T21:25:47.483Z,25.70
2022-11-16T21:28:22.687Z,31.85
2022-11-16T21:30:59.303Z,27.50
2022-11-16T21:33:29.969Z,46.20
2022-11-16T21:36:00.295Z,51.95
2022-11-16T21:38:30.606Z,48.92
2022-11-16T21:41:04.391Z,80.20
2022-11-16T21:43:36.393Z,69.60
2022-11-16T21:46:08.864Z,80.38
2022-11-16T21:48:39.362Z,71.40
2022-11-16T21:51:11.380Z,111.10
2022-11-16T21:53:42.041Z,51.35
2022-11-16T21:56:17.287Z,73.18
2022-11-16T21:58:49.882Z,88.68
2022-11-16T22:01:20.291Z,55.60
2022-11-16T22:04:11.177Z,92.72
2022-11-16T22:06:53.927Z,85.55
2022-11-16T22:09:24.250Z,86.22
2022-11-16T22:12:01.015Z,104.57
2022-11-16T22:14:34.242Z,71.90
2022-11-16T22:17:04.562Z,93.55
2022-11-16T22:19:34.801Z,71.95
2022-11-16T22:22:05.111Z,156.88
2022-11-16T22:24:35.453Z,116.10
2022-11-16T22:27:08.222Z,143.20
2022-11-16T22:29:38.533Z,153.10
2022-11-16T22:32:08.864Z,128.15
2022-11-16T22:34:39.276Z,114.28
2022-11-16T22:37:09.706Z,109.35
2022-11-16T22:39:39.991Z,92.35
2022-11-16T22:42:12.810Z,80.68
2022-11-16T22:44:43.106Z,85.10
2022-11-16T22:47:13.401Z,61.53
2022-11-16T22:49:43.748Z,69.55
2022-11-16T22:52:14.012Z,65.65
2022-11-16T22:54:44.266Z,62.72
2022-11-16T22:57:17.050Z,56.25
2022-11-16T22:59:47.783Z,51.05
2022-11-16T23:02:18.044Z,44.42
2022-11-16T23:04:48.497Z,48.08
2022-11-16T23:07:18.839Z,45.60
2022-11-16T23:09:49.171Z,51.25
2022-11-16T23:12:39.815Z,62.08
2022-11-16T23:15:26.742Z,54.63
2022-11-16T23:17:56.723Z,49.75
2022-11-16T23:20:39.474Z,44.80
2022-11-16T23:23:22.199Z,47.35
2022-11-16T23:26:04.683Z,50.83
2022-11-16T23:28:37.587Z,38.47
2022-11-16T23:31:07.845Z,40.28
2022-11-16T23:33:47.927Z,38.63
2022-11-16T23:36:18.290Z,37.45
2022-11-16T23:38:48.616Z,38.42
2022-11-16T23:41:31.305Z,36.53
2022-11-16T23:44:03.897Z,40.45
2022-11-16T23:46:35.078Z,33.72
2022-11-16T23:49:05.354Z,31.77
2022-11-16T23:51:35.644Z,38.40
2022-11-16T23:54:06.843Z,34.95
2022-11-16T23:56:37.137Z,39.25
2022-11-16T23:59:09.960Z,32.50
